Time;durP1;ratioP1;P1;durP2;ratioP2;P2;SDS_P1;SDS_P2;PMS_P1;PMS_P2;Temp;Humidity;BMP_temperature;BMP_pressure;BME280_temperature;BME280_humidity;BME280_pressure;Samples;Min_cycle;Max_cycle;Signal;HPM_P1;HPM_P2
2023/03/03 00:01:00;;;;;;;42.00;16.75;;;;;;;-1.92;100.00;98631.72;2542095;29;20062;-88
2023/03/03 00:02:16;;;;;;;39.13;16.92;;;;;;;-1.86;98.67;98636.13;2543695;29;20074;-90
2023/03/03 00:03:31;;;;;;;37.33;16.48;;;;;;;-1.88;97.12;98632.66;2550547;29;20147;-89
2023/03/03 00:04:47;;;;;;;38.17;15.35;;;;;;;-1.93;97.24;98640.25;2551745;29;20528;-86
2023/03/03 00:06:04;;;;;;;37.53;16.15;;;;;;;-2.10;97.96;98638.91;2551373;29;20052;-85
2023/03/03 00:07:21;;;;;;;34.63;15.15;;;;;;;-2.16;100.00;98642.22;2549835;29;20051;-87
2023/03/03 00:08:38;;;;;;;45.17;16.17;;;;;;;-2.20;99.32;98641.25;2551253;29;20078;-87
2023/03/03 00:09:53;;;;;;;39.17;16.27;;;;;;;-2.26;100.00;98641.09;2551780;29;20052;-90
2023/03/03 00:11:09;;;;;;;45.15;16.65;;;;;;;-2.35;99.38;98644.28;2550064;29;20055;-85
2023/03/03 00:12:28;;;;;;;40.17;15.38;;;;;;;-2.50;99.98;98649.88;2552246;29;20198;-87
2023/03/03 00:13:56;;;;;;;38.00;15.27;;;;;;;-2.41;99.61;98646.69;2551030;28;20090;-87
2023/03/03 00:15:20;;;;;;;42.38;16.10;;;;;;;-2.41;100.00;98650.09;2552663;29;20134;-86
2023/03/03 00:16:37;;;;;;;36.42;15.15;;;;;;;-2.47;100.00;98642.25;2551910;29;20143;-88
2023/03/03 00:17:53;;;;;;;43.38;16.17;;;;;;;-2.35;100.00;98649.41;2550797;29;20062;-86
2023/03/03 00:19:16;;;;;;;43.22;16.33;;;;;;;-2.45;100.00;98643.16;2550060;29;20083;-85
2023/03/03 00:20:36;;;;;;;39.88;16.60;;;;;;;-2.32;100.00;98641.78;2551041;29;20048;-87
2023/03/03 00:21:55;;;;;;;41.75;15.40;;;;;;;-2.28;100.00;98641.06;2553035;29;20070;-86
2023/03/03 00:23:35;;;;;;;40.70;16.58;;;;;;;-2.09;98.17;98640.69;2551374;29;20491;-86
2023/03/03 00:24:51;;;;;;;45.47;15.68;;;;;;;-2.19;97.56;98643.00;2550350;29;20059;-87
2023/03/03 00:26:20;;;;;;;34.78;14.57;;;;;;;-2.15;96.60;98643.94;2550993;29;20454;-85
2023/03/03 00:27:36;;;;;;;38.58;15.38;;;;;;;-2.16;95.35;98645.63;2541760;29;20539;-85
2023/03/03 00:28:55;;;;;;;43.70;16.35;;;;;;;-2.22;96.41;98635.22;2543430;29;20075;-86
2023/03/03 00:30:24;;;;;;;37.30;15.05;;;;;;;-2.21;96.07;98642.09;2551268;29;20062;-86
2023/03/03 00:31:39;;;;;;;42.53;16.42;;;;;;;-2.47;97.37;98634.56;2549665;29;20055;-86
2023/03/03 00:32:55;;;;;;;41.58;15.13;;;;;;;-2.77;100.00;98634.56;2552311;29;20066;-86
2023/03/03 00:34:17;;;;;;;36.45;14.27;;;;;;;-2.77;100.00;98634.56;2541594;29;20078;-88
2023/03/03 00:35:38;;;;;;;42.83;15.45;;;;;;;-2.89;100.00;98635.09;2545517;29;20437;-88
2023/03/03 00:36:56;;;;;;;40.80;15.48;;;;;;;-2.88;100.00;98634.25;2552209;29;20127;-88
2023/03/03 00:38:17;;;;;;;37.80;15.82;;;;;;;-2.94;100.00;98636.63;2551688;28;20095;-87
2023/03/03 00:39:37;;;;;;;37.70;14.73;;;;;;;-3.16;100.00;98641.13;2551009;29;20055;-86
2023/03/03 00:40:53;;;;;;;34.38;13.73;;;;;;;-3.29;100.00;98639.88;2550682;29;20466;-87
2023/03/03 00:42:13;;;;;;;38.70;14.73;;;;;;;-3.30;100.00;98635.59;2549492;29;20170;-87
2023/03/03 00:43:35;;;;;;;40.33;16.25;;;;;;;-3.36;100.00;98646.50;2552643;29;20055;-85
2023/03/03 00:44:58;;;;;;;40.13;14.98;;;;;;;-3.41;100.00;98645.50;2552200;29;20057;-87
2023/03/03 00:46:22;;;;;;;39.85;15.02;;;;;;;-3.35;100.00;98640.59;2551130;29;20059;-87
2023/03/03 00:47:40;;;;;;;35.20;15.23;;;;;;;-3.38;100.00;98640.47;2551371;29;20116;-85
2023/03/03 00:48:56;;;;;;;38.38;15.25;;;;;;;-3.38;100.00;98642.19;2551935;29;20057;-85
2023/03/03 00:50:33;;;;;;;32.47;13.70;;;;;;;-3.30;100.00;98645.81;2551390;29;20055;-85
2023/03/03 00:51:49;;;;;;;39.30;15.88;;;;;;;-3.12;100.00;98641.28;2550706;29;20051;-85
2023/03/03 00:53:15;;;;;;;47.17;16.30;;;;;;;-2.95;100.00;98643.47;2550210;29;20467;-85
2023/03/03 00:54:31;;;;;;;48.80;16.42;;;;;;;-2.98;100.00;98644.25;2551107;29;20749;-86
2023/03/03 00:55:51;;;;;;;44.33;16.33;;;;;;;-2.84;100.00;98644.66;2552016;29;20134;-87
2023/03/03 00:57:07;;;;;;;45.38;17.67;;;;;;;-2.66;100.00;98642.56;2550924;29;20771;-86
2023/03/03 00:58:26;;;;;;;42.38;16.73;;;;;;;-2.41;100.00;98639.84;2552484;29;20078;-85
2023/03/03 00:59:42;;;;;;;42.70;16.80;;;;;;;-2.43;100.00;98638.94;2550537;29;20705;-86
2023/03/03 01:00:57;;;;;;;44.67;17.30;;;;;;;-2.27;100.00;98629.97;2538920;29;20059;-86
2023/03/03 01:02:13;;;;;;;46.83;17.98;;;;;;;-2.24;100.00;98630.88;2543937;29;20499;-88
2023/03/03 01:03:28;;;;;;;47.88;16.52;;;;;;;-2.29;100.00;98641.88;2550401;28;20056;-86
2023/03/03 01:04:49;;;;;;;42.92;17.70;;;;;;;-2.40;100.00;98635.59;2550296;29;20062;-85
2023/03/03 01:06:06;;;;;;;36.85;15.95;;;;;;;-2.33;100.00;98628.94;2552064;29;20056;-85
2023/03/03 01:07:22;;;;;;;48.25;17.55;;;;;;;-2.25;100.00;98627.44;2549607;29;20120;-86
2023/03/03 01:08:37;;;;;;;44.95;16.98;;;;;;;-2.21;100.00;98624.13;2550819;29;20051;-86
2023/03/03 01:09:53;;;;;;;40.53;16.30;;;;;;;-2.30;100.00;98626.44;2552319;29;20078;-89
2023/03/03 01:11:15;;;;;;;45.35;16.83;;;;;;;-2.40;100.00;98630.47;2550672;29;20070;-86
2023/03/03 01:12:30;;;;;;;41.25;17.40;;;;;;;-2.42;100.00;98630.41;2550372;29;20047;-88
2023/03/03 01:13:49;;;;;;;41.60;15.50;;;;;;;-2.67;100.00;98628.00;2551781;29;20102;-85
2023/03/03 01:15:07;;;;;;;40.45;16.35;;;;;;;-2.78;100.00;98631.16;2551312;29;20483;-87
2023/03/03 01:16:23;;;;;;;38.63;16.13;;;;;;;-2.80;100.00;98625.09;2552490;29;20047;-85
2023/03/03 01:17:38;;;;;;;37.88;16.08;;;;;;;-2.72;100.00;98627.91;2552245;28;20062;-86
2023/03/03 01:18:54;;;;;;;40.55;15.82;;;;;;;-2.79;100.00;98628.53;2550172;29;20054;-86
2023/03/03 01:20:12;;;;;;;45.50;17.08;;;;;;;-2.94;100.00;98623.81;2541711;29;20051;-87
2023/03/03 01:21:28;;;;;;;39.25;16.70;;;;;;;-2.93;100.00;98630.69;2543448;29;20067;-85
2023/03/03 01:22:43;;;;;;;38.13;15.20;;;;;;;-3.16;100.00;98629.19;2550215;29;20056;-85
2023/03/03 01:23:59;;;;;;;44.42;16.35;;;;;;;-3.32;100.00;98627.00;2551637;29;20055;-85
2023/03/03 01:25:15;;;;;;;38.72;16.77;;;;;;;-3.28;100.00;98626.28;2551190;29;20059;-86
2023/03/03 01:26:31;;;;;;;40.20;17.33;;;;;;;-3.42;100.00;98626.72;2550028;29;20051;-86
2023/03/03 01:27:46;;;;;;;41.00;17.00;;;;;;;-3.37;100.00;98624.28;2550036;29;20103;-85
2023/03/03 01:29:02;;;;;;;43.35;16.75;;;;;;;-3.42;100.00;98626.72;2538250;29;20528;-91
2023/03/03 01:30:17;;;;;;;40.60;16.00;;;;;;;-3.61;100.00;98621.84;2543616;29;20078;-87
2023/03/03 01:31:33;;;;;;;44.53;16.90;;;;;;;-3.55;100.00;98615.22;2540388;29;20054;-86
2023/03/03 01:32:49;;;;;;;33.85;16.05;;;;;;;-3.55;100.00;98615.22;2545235;29;20110;-86
2023/03/03 01:34:06;;;;;;;42.05;15.93;;;;;;;-3.55;100.00;98611.81;2549954;29;20043;-87
2023/03/03 01:35:22;;;;;;;41.30;15.50;;;;;;;-3.72;100.00;98614.69;2538761;29;20392;-85
2023/03/03 01:36:37;;;;;;;42.50;15.93;;;;;;;-3.72;100.00;98608.72;2544739;29;20051;-87
2023/03/03 01:37:53;;;;;;;38.65;15.75;;;;;;;-3.64;100.00;98612.38;2549202;29;20059;-85
2023/03/03 01:39:10;;;;;;;36.45;15.25;;;;;;;-3.73;100.00;98612.94;2551083;29;20062;-90
2023/03/03 01:40:28;;;;;;;42.72;15.50;;;;;;;-3.91;100.00;98608.13;2551271;29;20055;-85
2023/03/03 01:41:43;;;;;;;37.28;14.82;;;;;;;-3.58;100.00;98609.13;2549953;29;20055;-86
2023/03/03 01:42:59;;;;;;;37.72;15.25;;;;;;;-3.22;100.00;98607.66;2551379;29;20466;-86
2023/03/03 01:44:15;;;;;;;36.60;14.98;;;;;;;-3.24;100.00;98606.72;2551588;29;20069;-88
2023/03/03 01:45:43;;;;;;;38.85;14.75;;;;;;;-3.34;100.00;98609.03;2551937;29;20498;-86
2023/03/03 01:47:27;;;;;;;44.17;14.55;;;;;;;-3.32;100.00;98614.19;2550546;29;20110;-85
2023/03/03 01:48:44;;;;;;;30.67;13.57;;;;;;;-3.49;100.00;98619.66;2549715;29;20130;-86
2023/03/03 01:50:09;;;;;;;37.20;14.38;;;;;;;-3.35;100.00;98614.09;2550857;29;20509;-88
2023/03/03 01:51:32;;;;;;;41.00;14.90;;;;;;;-3.20;100.00;98616.28;2549291;29;20055;-85
2023/03/03 01:52:48;;;;;;;42.78;16.23;;;;;;;-3.08;100.00;98618.31;2551244;29;20524;-86
2023/03/03 01:54:11;;;;;;;48.20;16.85;;;;;;;-3.17;100.00;98611.22;2549163;28;20107;-85
2023/03/03 01:55:34;;;;;;;36.33;15.63;;;;;;;-3.03;100.00;98617.63;2552299;29;20126;-87
2023/03/03 01:56:52;;;;;;;42.97;15.40;;;;;;;-2.94;100.00;98611.00;2551313;29;20459;-85
2023/03/03 01:58:17;;;;;;;36.63;13.48;;;;;;;-3.01;100.00;98608.28;2550203;29;20114;-85
2023/03/03 01:59:36;;;;;;;40.80;14.27;;;;;;;-3.24;100.00;98610.19;2540591;29;20075;-84
2023/03/03 02:01:01;;;;;;;42.03;16.40;;;;;;;-3.14;100.00;98611.31;2544135;29;20534;-87
2023/03/03 02:02:18;;;;;;;42.33;14.85;;;;;;;-3.14;100.00;98614.75;2549620;29;20643;-85
2023/03/03 02:03:34;;;;;;;43.67;17.13;;;;;;;-2.94;100.00;98616.13;2550274;29;20067;-89
2023/03/03 02:04:50;;;;;;;49.20;16.65;;;;;;;-2.86;100.00;98618.13;2550961;28;20426;-85
2023/03/03 02:06:10;;;;;;;43.40;16.48;;;;;;;-2.79;100.00;98616.59;2549732;28;20690;-85
2023/03/03 02:07:30;;;;;;;43.03;16.02;;;;;;;-2.77;100.00;98617.50;2551019;29;20047;-85
2023/03/03 02:08:50;;;;;;;46.03;16.92;;;;;;;-2.85;100.00;98613.84;2551350;29;20135;-87
2023/03/03 02:10:11;;;;;;;44.88;17.13;;;;;;;-2.78;100.00;98626.03;2550643;29;20106;-86
2023/03/03 02:11:30;;;;;;;42.13;16.60;;;;;;;-2.72;100.00;98621.06;2552108;29;20047;-86
2023/03/03 02:12:57;;;;;;;42.97;16.23;;;;;;;-2.78;100.00;98620.91;2549378;29;20198;-86
2023/03/03 02:14:13;;;;;;;42.67;15.88;;;;;;;-3.01;100.00;98626.22;2551390;29;20060;-85
2023/03/03 02:15:32;;;;;;;38.90;16.17;;;;;;;-3.13;100.00;98620.72;2551181;29;20410;-86
2023/03/03 02:16:48;;;;;;;37.15;15.13;;;;;;;-3.13;100.00;98623.28;2550999;29;20067;-85
2023/03/03 02:18:21;;;;;;;42.88;16.17;;;;;;;-3.33;100.00;98618.47;2550857;29;20091;-86
2023/03/03 02:19:51;;;;;;;38.28;15.13;;;;;;;-3.36;100.00;98615.78;2549181;29;20066;-84
2023/03/03 02:21:14;;;;;;;43.90;15.65;;;;;;;-3.33;100.00;98620.13;2549770;29;20079;-85
2023/03/03 02:22:40;;;;;;;40.78;15.65;;;;;;;-3.40;100.00;98619.06;2551419;29;20131;-85
2023/03/03 02:23:58;;;;;;;38.28;15.20;;;;;;;-3.39;100.00;98618.25;2550497;29;20406;-85
2023/03/03 02:25:30;;;;;;;38.70;15.57;;;;;;;-3.23;100.00;98617.03;2550760;29;20055;-86
2023/03/03 02:26:46;;;;;;;40.72;16.13;;;;;;;-3.36;100.00;98613.22;2550336;29;20055;-87
2023/03/03 02:28:02;;;;;;;38.78;15.32;;;;;;;-3.52;100.00;98616.13;2549638;29;20062;-85
2023/03/03 02:29:18;;;;;;;40.13;16.13;;;;;;;-3.60;100.00;98619.34;2551690;29;20059;-86
2023/03/03 02:30:37;;;;;;;37.28;14.70;;;;;;;-3.78;100.00;98616.16;2550239;29;20577;-85
2023/03/03 02:31:53;;;;;;;34.40;14.60;;;;;;;-3.83;100.00;98613.50;2550165;29;20051;-88
2023/03/03 02:33:08;;;;;;;36.97;15.55;;;;;;;-3.95;100.00;98615.66;2550812;28;20063;-86
2023/03/03 02:34:25;;;;;;;40.92;15.90;;;;;;;-3.84;100.00;98614.31;2548972;29;20048;-88
2023/03/03 02:35:41;;;;;;;42.45;16.58;;;;;;;-3.72;100.00;98616.38;2552086;29;20054;-86
2023/03/03 02:36:56;;;;;;;41.50;15.98;;;;;;;-3.59;100.00;98609.97;2549646;29;20055;-84
2023/03/03 02:38:24;;;;;;;42.55;16.13;;;;;;;-3.56;100.00;98602.41;2550543;29;20396;-86
2023/03/03 02:39:39;;;;;;;38.58;15.60;;;;;;;-3.59;100.00;98600.59;2550240;29;20056;-85
2023/03/03 02:41:15;;;;;;;39.22;15.48;;;;;;;-3.71;100.00;98597.66;2551508;29;20134;-85
2023/03/03 02:42:32;;;;;;;35.42;14.57;;;;;;;-3.81;100.00;98596.50;2501289;29;20552;-88
2023/03/03 02:44:07;;;;;;;37.53;15.70;;;;;;;-3.62;100.00;98600.50;2542993;29;20055;-89
2023/03/03 02:45:23;;;;;;;35.53;14.80;;;;;;;-3.94;100.00;98602.03;2549309;29;20056;-89
2023/03/03 02:46:41;;;;;;;39.28;16.13;;;;;;;-4.24;100.00;98607.88;2552143;29;20593;-87
2023/03/03 02:47:57;;;;;;;37.08;14.07;;;;;;;-4.26;100.00;98612.94;2552476;29;20417;-86
2023/03/03 02:49:16;;;;;;;35.65;14.70;;;;;;;-4.19;100.00;98612.34;2550827;29;20043;-86
2023/03/03 02:50:32;;;;;;;37.13;14.45;;;;;;;-4.20;100.00;98614.81;2552820;29;20071;-88
2023/03/03 02:51:48;;;;;;;39.65;15.38;;;;;;;-4.14;100.00;98613.34;2552491;29;20119;-85
2023/03/03 02:53:04;;;;;;;37.92;16.02;;;;;;;-3.87;100.00;98607.41;2552677;28;21102;-88
2023/03/03 02:54:22;;;;;;;39.67;14.88;;;;;;;-3.91;100.00;98605.56;2554084;29;20083;-85
2023/03/03 02:55:37;;;;;;;42.45;15.80;;;;;;;-3.90;100.00;98611.53;2550685;29;20504;-87
2023/03/03 02:56:53;;;;;;;39.35;14.73;;;;;;;-3.77;100.00;98602.56;2540561;29;20056;-85
2023/03/03 02:58:09;;;;;;;48.00;15.95;;;;;;;-3.70;100.00;98600.28;2546168;29;20051;-87
2023/03/03 02:59:24;;;;;;;37.95;15.02;;;;;;;-3.89;100.00;98606.50;2552237;29;20056;-85
2023/03/03 03:00:40;;;;;;;40.83;17.13;;;;;;;-3.90;100.00;98607.31;2551259;29;20048;-86
2023/03/03 03:01:57;;;;;;;39.58;16.00;;;;;;;-3.81;100.00;98603.28;2552611;29;20047;-85
2023/03/03 03:03:13;;;;;;;41.92;17.05;;;;;;;-3.94;100.00;98604.59;2551886;29;20067;-85
2023/03/03 03:04:28;;;;;;;43.25;15.73;;;;;;;-4.02;100.00;98612.03;2551834;29;20051;-86
2023/03/03 03:05:44;;;;;;;43.28;15.48;;;;;;;-3.77;100.00;98617.91;2551632;29;20102;-87
2023/03/03 03:07:00;;;;;;;41.35;16.45;;;;;;;-3.89;100.00;98614.16;2552184;28;20062;-85
2023/03/03 03:08:15;;;;;;;42.50;16.20;;;;;;;-3.78;100.00;98619.63;2551965;29;20052;-87
2023/03/03 03:09:31;;;;;;;39.20;14.50;;;;;;;-3.52;100.00;98623.81;2552383;29;20171;-85
2023/03/03 03:10:48;;;;;;;39.22;15.00;;;;;;;-3.44;100.00;98614.69;2552423;29;20052;-85
2023/03/03 03:12:04;;;;;;;37.10;15.15;;;;;;;-3.30;100.00;98618.53;2550706;29;20047;-87
2023/03/03 03:13:19;;;;;;;38.90;15.70;;;;;;;-3.39;100.00;98625.94;2552070;28;20475;-87
2023/03/03 03:14:35;;;;;;;38.53;16.05;;;;;;;-3.32;100.00;98622.75;2552477;29;20055;-86
2023/03/03 03:15:50;;;;;;;42.42;16.42;;;;;;;-3.45;100.00;98620.63;2553208;28;20060;-88
2023/03/03 03:17:06;;;;;;;36.78;16.55;;;;;;;-3.27;100.00;98626.31;2541769;29;20530;-87
2023/03/03 03:18:22;;;;;;;40.42;15.70;;;;;;;-3.27;100.00;98622.91;2545851;29;20183;-86
2023/03/03 03:19:37;;;;;;;41.15;15.77;;;;;;;-3.22;100.00;98617.88;2551817;29;20059;-86
2023/03/03 03:20:53;;;;;;;44.05;15.90;;;;;;;-3.36;100.00;98620.91;2550616;29;20134;-87
2023/03/03 03:22:08;;;;;;;41.63;15.52;;;;;;;-3.31;100.00;98619.38;2541537;29;20060;-88
2023/03/03 03:23:24;;;;;;;41.42;16.73;;;;;;;-3.41;100.00;98618.22;2535558;29;20052;-87
2023/03/03 03:24:40;;;;;;;40.35;16.38;;;;;;;-3.40;100.00;98616.50;2546807;29;20051;-84
2023/03/03 03:25:55;;;;;;;43.42;16.98;;;;;;;-3.22;100.00;98623.00;2553400;29;20078;-86
2023/03/03 03:27:11;;;;;;;45.83;17.65;;;;;;;-3.26;100.00;98624.63;2552402;29;20498;-87
2023/03/03 03:28:26;;;;;;;40.00;16.30;;;;;;;-3.37;100.00;98620.88;2552511;29;20220;-86
2023/03/03 03:29:42;;;;;;;41.28;16.35;;;;;;;-3.38;100.00;98622.53;2552474;28;20057;-88
2023/03/03 03:30:58;;;;;;;43.55;16.23;;;;;;;-3.33;100.00;98615.00;2540909;29;20056;-88
2023/03/03 03:32:13;;;;;;;41.90;17.67;;;;;;;-3.38;100.00;98624.25;2544990;29;20051;-87
2023/03/03 03:33:30;;;;;;;38.78;16.63;;;;;;;-3.52;100.00;98619.56;2552398;29;20070;-86
2023/03/03 03:34:45;;;;;;;37.83;15.45;;;;;;;-3.58;100.00;98620.25;2550375;29;20491;-84
2023/03/03 03:36:03;;;;;;;35.40;14.95;;;;;;;-3.62;100.00;98618.44;2551326;29;20070;-85
2023/03/03 03:37:19;;;;;;;39.88;15.88;;;;;;;-3.64;100.00;98614.91;2551852;29;20466;-85
2023/03/03 03:38:38;;;;;;;40.15;16.48;;;;;;;-3.80;100.00;98618.72;2551422;29;20059;-86
2023/03/03 03:39:53;;;;;;;42.40;16.75;;;;;;;-3.60;100.00;98614.22;2551490;29;20554;-86
2023/03/03 03:41:10;;;;;;;42.97;17.70;;;;;;;-3.89;100.00;98616.72;2552801;28;20090;-87
2023/03/03 03:42:26;;;;;;;46.50;17.35;;;;;;;-3.87;100.00;98616.75;2540671;29;20144;-85
2023/03/03 03:43:42;;;;;;;46.72;17.35;;;;;;;-3.97;100.00;98616.47;2546363;29;20050;-85
2023/03/03 03:44:58;;;;;;;46.00;17.02;;;;;;;-4.02;100.00;98612.88;2550531;29;20460;-85
2023/03/03 03:46:13;;;;;;;46.67;16.83;;;;;;;-3.98;100.00;98614.75;2551777;29;20361;-84
2023/03/03 03:47:29;;;;;;;35.92;16.00;;;;;;;-4.16;100.00;98615.00;2551168;29;20047;-86
2023/03/03 03:48:45;;;;;;;43.38;17.20;;;;;;;-4.07;100.00;98621.22;2550015;29;20055;-90
2023/03/03 03:50:01;;;;;;;42.72;16.80;;;;;;;-4.23;100.00;98622.41;2540184;29;20051;-89
2023/03/03 03:51:16;;;;;;;37.75;15.63;;;;;;;-4.38;100.00;98612.50;2543864;29;20055;-86
2023/03/03 03:52:32;;;;;;;38.78;15.77;;;;;;;-4.41;100.00;98611.59;2550386;29;20059;-85
2023/03/03 03:53:48;;;;;;;45.35;16.02;;;;;;;-4.26;100.00;98615.50;2550809;29;20056;-85
2023/03/03 03:55:04;;;;;;;37.42;15.10;;;;;;;-4.30;100.00;98608.53;2541916;29;20134;-85
2023/03/03 03:56:19;;;;;;;43.67;16.50;;;;;;;-4.22;100.00;98611.34;2544105;29;20146;-86
2023/03/03 03:57:35;;;;;;;37.60;15.65;;;;;;;-4.50;100.00;98607.84;2552258;29;20099;-85
2023/03/03 03:58:51;;;;;;;46.35;15.35;;;;;;;-4.46;100.00;98608.00;2551077;28;20384;-85
2023/03/03 04:00:08;;;;;;;40.78;16.73;;;;;;;-4.43;100.00;98607.22;2549876;29;20055;-85
2023/03/03 04:01:25;;;;;;;42.17;16.25;;;;;;;-4.32;100.00;98608.47;2551685;28;20653;-85
2023/03/03 04:02:40;;;;;;;44.58;17.40;;;;;;;-4.02;100.00;98609.47;2552791;29;20102;-85
2023/03/03 04:03:56;;;;;;;45.97;16.42;;;;;;;-3.81;100.00;98595.63;2552920;29;20062;-87
2023/03/03 04:05:12;;;;;;;41.60;15.48;;;;;;;-4.08;100.00;98599.00;2550958;29;20422;-84
2023/03/03 04:06:27;;;;;;;42.13;15.90;;;;;;;-4.25;100.00;98599.31;2551964;28;20131;-84
2023/03/03 04:07:43;;;;;;;44.63;16.40;;;;;;;-4.04;100.00;98593.22;2550578;28;20059;-89
2023/03/03 04:08:59;;;;;;;45.53;16.75;;;;;;;-4.21;100.00;98600.31;2550593;29;20051;-86
2023/03/03 04:10:14;;;;;;;41.50;16.67;;;;;;;-4.18;100.00;98593.63;2552046;29;20055;-84
2023/03/03 04:11:30;;;;;;;42.05;16.42;;;;;;;-3.83;100.00;98595.59;2551677;29;20097;-86
2023/03/03 04:12:46;;;;;;;44.38;17.27;;;;;;;-3.87;100.00;98598.84;2551127;29;20062;-85
2023/03/03 04:14:01;;;;;;;40.03;14.25;;;;;;;-4.05;100.00;98591.44;2551087;29;20107;-85
2023/03/03 04:15:17;;;;;;;41.03;17.20;;;;;;;-4.15;100.00;98596.28;2552039;29;20062;-85
2023/03/03 04:16:33;;;;;;;41.38;15.50;;;;;;;-4.15;100.00;98598.81;2552384;29;20051;-85
2023/03/03 04:17:49;;;;;;;41.40;15.80;;;;;;;-4.12;100.00;98598.91;2552265;28;20091;-85
2023/03/03 04:19:04;;;;;;;37.42;15.75;;;;;;;-4.14;100.00;98598.00;2551497;29;20044;-85
2023/03/03 04:20:20;;;;;;;40.75;14.95;;;;;;;-4.21;100.00;98606.28;2549934;29;20526;-85
2023/03/03 04:21:35;;;;;;;37.33;14.23;;;;;;;-4.48;100.00;98607.06;2552688;28;20366;-86
2023/03/03 04:22:51;;;;;;;39.95;16.08;;;;;;;-4.64;100.00;98608.25;2551475;29;20199;-84
2023/03/03 04:24:07;;;;;;;39.80;15.48;;;;;;;-4.71;100.00;98607.16;2552922;29;20058;-88
2023/03/03 04:25:22;;;;;;;33.00;13.75;;;;;;;-4.78;100.00;98609.44;2551751;29;20071;-86
2023/03/03 04:26:38;;;;;;;39.47;14.07;;;;;;;-4.56;100.00;98606.81;2552237;29;20065;-84
2023/03/03 04:27:54;;;;;;;38.00;15.57;;;;;;;-4.30;100.00;98611.09;2550110;29;20051;-85
2023/03/03 04:29:09;;;;;;;38.92;14.70;;;;;;;-4.44;100.00;98608.94;2550767;29;20215;-88
2023/03/03 04:30:25;;;;;;;39.30;16.05;;;;;;;-4.09;100.00;98615.19;2552749;29;20055;-85
2023/03/03 04:31:41;;;;;;;46.28;15.00;;;;;;;-4.07;100.00;98616.09;2550349;29;20047;-86
2023/03/03 04:32:57;;;;;;;43.38;16.63;;;;;;;-4.00;100.00;98616.34;2539931;29;20048;-88
2023/03/03 04:34:12;;;;;;;49.42;16.90;;;;;;;-4.10;100.00;98624.56;2544448;29;20490;-86
2023/03/03 04:35:28;;;;;;;45.47;17.85;;;;;;;-3.97;100.00;98615.59;2552929;29;20055;-84
2023/03/03 04:36:43;;;;;;;40.15;16.92;;;;;;;-3.90;100.00;98620.09;2550533;29;20478;-85
2023/03/03 04:37:59;;;;;;;39.30;17.17;;;;;;;-3.95;100.00;98623.31;2551977;29;20058;-84
2023/03/03 04:39:15;;;;;;;40.13;16.08;;;;;;;-3.84;100.00;98622.84;2549775;29;20051;-86
2023/03/03 04:40:30;;;;;;;43.50;16.52;;;;;;;-3.82;100.00;98620.34;2540656;29;20229;-85
2023/03/03 04:41:46;;;;;;;41.17;16.63;;;;;;;-3.96;100.00;98627.56;2545949;29;20058;-86
2023/03/03 04:43:02;;;;;;;45.70;16.95;;;;;;;-4.01;100.00;98613.75;2549880;29;20401;-87
2023/03/03 04:44:18;;;;;;;38.88;16.48;;;;;;;-3.97;100.00;98620.69;2550379;29;20222;-84
2023/03/03 04:45:34;;;;;;;43.20;17.85;;;;;;;-3.94;100.00;98618.25;2550782;28;20079;-88
2023/03/03 04:46:50;;;;;;;53.53;19.63;;;;;;;-3.81;100.00;98621.19;2550580;28;20051;-87
2023/03/03 04:48:05;;;;;;;42.75;17.33;;;;;;;-3.78;100.00;98616.16;2550104;28;20058;-87
2023/03/03 04:49:21;;;;;;;49.50;18.15;;;;;;;-3.86;100.00;98618.50;2549869;29;20062;-86
2023/03/03 04:50:37;;;;;;;46.95;17.10;;;;;;;-3.97;100.00;98623.25;2551099;29;20053;-90
2023/03/03 04:51:53;;;;;;;49.22;18.23;;;;;;;-4.04;100.00;98629.84;2552559;28;20058;-87
2023/03/03 04:53:09;;;;;;;37.00;15.85;;;;;;;-4.36;100.00;98624.53;2551694;29;20067;-88
2023/03/03 04:54:24;;;;;;;45.13;16.33;;;;;;;-4.35;100.00;98627.94;2550515;29;20058;-85
2023/03/03 04:55:40;;;;;;;39.75;16.23;;;;;;;-4.53;100.00;98634.16;2552160;29;20052;-88
2023/03/03 04:56:57;;;;;;;43.50;17.58;;;;;;;-4.31;100.00;98624.69;2552110;28;20096;-86
2023/03/03 04:58:13;;;;;;;43.67;17.10;;;;;;;-4.43;100.00;98626.00;2550180;29;20059;-86
2023/03/03 04:59:28;;;;;;;35.40;15.32;;;;;;;-4.38;100.00;98626.16;2551650;29;20410;-87
2023/03/03 05:00:46;;;;;;;41.58;16.80;;;;;;;-4.44;100.00;98621.72;2539246;29;20056;-86
2023/03/03 05:02:03;;;;;;;41.03;17.35;;;;;;;-4.38;100.00;98627.84;2544597;29;20074;-87
2023/03/03 05:03:19;;;;;;;38.97;16.42;;;;;;;-4.41;100.00;98626.03;2551188;29;20367;-86
2023/03/03 05:04:35;;;;;;;44.30;16.35;;;;;;;-4.60;100.00;98630.50;2551444;29;20066;-89
2023/03/03 05:05:50;;;;;;;49.22;17.92;;;;;;;-4.29;100.00;98626.47;2550108;29;20048;-89
2023/03/03 05:07:06;;;;;;;38.05;16.50;;;;;;;-4.19;100.00;98625.13;2541824;29;20439;-86
2023/03/03 05:08:22;;;;;;;37.70;14.70;;;;;;;-4.28;100.00;98630.75;2544188;29;20059;-86
2023/03/03 05:09:37;;;;;;;40.80;15.70;;;;;;;-4.13;100.00;98627.88;2550524;28;20073;-87
2023/03/03 05:10:54;;;;;;;35.33;16.00;;;;;;;-4.07;100.00;98624.66;2551018;29;20464;-86
2023/03/03 05:12:09;;;;;;;42.72;16.45;;;;;;;-4.32;100.00;98623.81;2549976;29;20062;-85
2023/03/03 05:13:26;;;;;;;31.55;14.55;;;;;;;-4.10;100.00;98616.88;2551747;29;20047;-87
2023/03/03 05:14:41;;;;;;;41.47;16.17;;;;;;;-4.06;100.00;98618.72;2550398;29;20051;-85
2023/03/03 05:15:57;;;;;;;35.58;14.35;;;;;;;-4.40;100.00;98625.22;2551017;29;20055;-86
2023/03/03 05:17:13;;;;;;;33.67;14.82;;;;;;;-4.23;100.00;98627.50;2551391;29;20820;-86
2023/03/03 05:18:28;;;;;;;40.92;15.35;;;;;;;-4.42;100.00;98627.75;2550390;29;20113;-89
2023/03/03 05:19:44;;;;;;;39.63;15.70;;;;;;;-4.47;100.00;98629.28;2551652;29;20063;-87
2023/03/03 05:21:00;;;;;;;36.70;14.65;;;;;;;-4.28;100.00;98632.47;2549184;29;20494;-90
2023/03/03 05:22:15;;;;;;;43.42;16.35;;;;;;;-4.34;100.00;98629.69;2549091;29;20151;-86
2023/03/03 05:23:31;;;;;;;45.40;17.25;;;;;;;-4.17;100.00;98626.03;2549931;28;20490;-86
2023/03/03 05:24:48;;;;;;;37.00;15.65;;;;;;;-4.29;100.00;98634.13;2550912;29;20051;-85
2023/03/03 05:26:04;;;;;;;43.38;15.40;;;;;;;-4.15;100.00;98631.19;2550922;29;20066;-89
2023/03/03 05:27:19;;;;;;;43.85;16.33;;;;;;;-4.06;100.00;98631.50;2549913;29;20126;-85
2023/03/03 05:28:35;;;;;;;43.20;17.73;;;;;;;-4.12;100.00;98637.28;2548559;29;20047;-89
2023/03/03 05:29:51;;;;;;;37.90;16.80;;;;;;;-4.19;100.00;98637.00;2541020;29;20142;-86
2023/03/03 05:31:06;;;;;;;41.75;16.55;;;;;;;-4.33;100.00;98633.97;2543761;29;20305;-86
2023/03/03 05:32:22;;;;;;;36.28;15.65;;;;;;;-4.37;100.00;98639.81;2551290;29;20490;-87
2023/03/03 05:33:37;;;;;;;42.33;15.55;;;;;;;-4.59;100.00;98639.06;2549848;28;20055;-86
2023/03/03 05:34:53;;;;;;;36.63;15.23;;;;;;;-4.77;100.00;98639.25;2550227;29;20569;-85
2023/03/03 05:36:09;;;;;;;41.42;15.90;;;;;;;-4.86;100.00;98644.91;2550246;28;20056;-85
2023/03/03 05:37:24;;;;;;;36.95;14.90;;;;;;;-4.87;100.00;98646.59;2550113;29;20407;-86
2023/03/03 05:38:40;;;;;;;39.70;14.95;;;;;;;-5.01;100.00;98648.63;2538130;29;20047;-90
2023/03/03 05:39:56;;;;;;;40.28;15.15;;;;;;;-5.16;100.00;98653.16;2542443;29;20051;-88
2023/03/03 05:41:11;;;;;;;36.15;14.02;;;;;;;-5.27;100.00;98653.63;2549391;29;20138;-86
2023/03/03 05:42:27;;;;;;;34.08;13.65;;;;;;;-5.45;100.00;98650.34;2550427;29;20077;-85
2023/03/03 05:43:43;;;;;;;40.80;14.02;;;;;;;-5.37;100.00;98659.16;2549661;29;20047;-83
2023/03/03 05:44:58;;;;;;;41.13;13.65;;;;;;;-5.10;100.00;98653.38;2548811;29;20062;-85
2023/03/03 05:46:14;;;;;;;36.75;15.38;;;;;;;-4.91;100.00;98649.84;2548349;29;20166;-89
2023/03/03 05:47:30;;;;;;;38.53;14.13;;;;;;;-5.02;100.00;98654.56;2549324;29;20046;-87
2023/03/03 05:48:46;;;;;;;38.80;15.30;;;;;;;-4.90;100.00;98660.91;2549616;29;20446;-86
2023/03/03 05:50:02;;;;;;;40.15;15.88;;;;;;;-4.69;100.00;98666.81;2538811;29;20075;-88
2023/03/03 05:51:18;;;;;;;42.00;15.80;;;;;;;-4.51;100.00;98668.28;2544275;29;20127;-86
2023/03/03 05:52:33;;;;;;;42.05;16.02;;;;;;;-4.43;100.00;98671.13;2549145;29;20040;-85